Orrville, Ohio
Current Conditions -  °F | °C
As of 3:56 PM on Thursday 23 Oct 2014 (Local Time) from KBJJ Reporting Station
Clear Clear  
Wind Chill: 59°   Ceiling: Unl
Heat Index: 59°   Visibility: 10mi
Dew Point: 43°   Wind: 9mph
Humidity: 55%   Direction: 330°NNW
Pressure: 30.13"   Gusts: NA
Location:  40.84°N, 81.76°W
Report Text: KBJJ 231956Z AUTO 33008KT 10SM CLR 15/06 A3013 RMK AO2 SLP205 T01500061 TSNO
Loading
Personal Weather Stations






























Interactive Weather Map New forecast layout! Learn more

10-Day Weather Forecast

Advertisements
Track Severe Weather on mobile